Time;durP1;ratioP1;P1;durP2;ratioP2;P2;SDS_P1;SDS_P2;PMS_P1;PMS_P2;Temp;Humidity;BMP_temperature;BMP_pressure;BME280_temperature;BME280_humidity;BME280_pressure;Samples;Min_cycle;Max_cycle;Signal;HPM_P1;HPM_P2
2023/12/11 00:00:54;;;;;;;45.57;11.20;;;;;;;4.67;100.00;99343.17;5048544;56;1140693;-81
2023/12/11 00:06:02;;;;;;;49.33;11.63;;;;;;;4.63;100.00;99341.72;5067530;56;1140827;-78
2023/12/11 00:11:09;;;;;;;155.30;31.43;;;;;;;4.60;100.00;99328.36;5048145;56;1140855;-79
2023/12/11 00:16:17;;;;;;;57.40;15.78;;;;;;;4.58;100.00;99323.74;5047567;56;1142949;-81
2023/12/11 00:21:23;;;;;;;60.53;15.47;;;;;;;4.54;100.00;99317.88;5054265;56;1140936;-77
2023/12/11 00:26:29;;;;;;;63.83;16.67;;;;;;;4.55;100.00;99303.02;5034946;57;1141069;-76
2023/12/11 00:31:35;;;;;;;71.53;17.83;;;;;;;4.55;100.00;99292.06;5034836;56;1140613;-82
2023/12/11 00:36:42;;;;;;;48.50;14.93;;;;;;;4.52;100.00;99284.42;5054902;56;1141110;-80
2023/12/11 00:41:48;;;;;;;33.77;8.63;;;;;;;4.50;100.00;99265.84;5034538;56;1140511;-79
2023/12/11 00:46:54;;;;;;;16.23;5.93;;;;;;;4.48;100.00;99282.97;5035395;56;1138795;-81
2023/12/11 00:51:59;;;;;;;22.87;8.88;;;;;;;4.44;100.00;99283.29;5036259;56;1138772;-80
2023/12/11 00:57:05;;;;;;;31.30;10.08;;;;;;;4.42;100.00;99270.34;5055197;56;1138977;-81
2023/12/11 01:02:13;;;;;;;20.23;7.70;;;;;;;4.39;100.00;99261.39;5034258;56;1140938;-81
2023/12/11 01:07:18;;;;;;;25.23;9.83;;;;;;;4.39;100.00;99260.55;5034758;57;1138831;-78
2023/12/11 01:12:24;;;;;;;34.73;11.20;;;;;;;4.36;100.00;99261.61;5055100;56;1138976;-81
2023/12/11 01:17:30;;;;;;;41.70;12.73;;;;;;;4.35;100.00;99248.16;5035111;56;1141016;-80
2023/12/11 01:22:35;;;;;;;33.03;9.80;;;;;;;4.34;100.00;99243.03;5084272;56;1140767;-79
2023/12/11 01:27:41;;;;;;;34.17;9.50;;;;;;;4.36;100.00;99245.06;5079858;54;1138912;-80
2023/12/11 01:32:47;;;;;;;34.50;8.13;;;;;;;4.35;100.00;99236.38;5048517;56;1138878;-81
2023/12/11 01:37:53;;;;;;;25.80;8.03;;;;;;;4.36;100.00;99231.98;5046911;55;1138736;-79
2023/12/11 01:43:15;;;;;;;32.67;9.33;;;;;;;4.36;100.00;99225.44;5048439;56;1138859;-78
2023/12/11 01:48:21;;;;;;;36.20;9.48;;;;;;;4.34;100.00;99222.09;5068471;55;1138875;-77
2023/12/11 01:53:28;;;;;;;23.77;6.90;;;;;;;4.34;100.00;99205.08;5049225;56;1138565;-76
2023/12/11 01:58:34;;;;;;;24.77;6.30;;;;;;;4.33;100.00;99204.71;5048622;56;1138732;-77
2023/12/11 02:03:40;;;;;;;35.03;8.67;;;;;;;4.34;100.00;99212.93;5068229;56;1138772;-77
2023/12/11 02:08:49;;;;;;;21.00;7.97;;;;;;;4.32;100.00;99212.20;5048949;56;1138816;-81
2023/12/11 02:13:55;;;;;;;20.30;6.70;;;;;;;4.32;100.00;99209.58;5049327;56;1138746;-78
2023/12/11 02:19:00;;;;;;;19.00;5.60;;;;;;;4.31;100.00;99199.59;5048781;56;1138588;-79
2023/12/11 02:24:19;;;;;;;17.13;4.77;;;;;;;4.31;100.00;99179.13;5069276;56;1138875;-80
2023/12/11 02:29:25;;;;;;;13.93;5.10;;;;;;;4.33;100.00;99174.61;5049262;57;1136686;-78
2023/12/11 02:34:30;;;;;;;19.93;6.90;;;;;;;4.32;100.00;99172.94;5048893;57;1136542;-76
2023/12/11 02:39:36;;;;;;;22.07;6.50;;;;;;;4.30;100.00;99166.51;5068142;56;1136913;-79
2023/12/11 02:44:42;;;;;;;19.93;5.63;;;;;;;4.29;100.00;99155.67;5048488;56;1138711;-80
2023/12/11 02:49:47;;;;;;;21.42;7.00;;;;;;;4.27;100.00;99145.83;5048456;55;1138564;-81
2023/12/11 02:54:53;;;;;;;37.90;8.87;;;;;;;4.27;100.00;99139.75;5047973;55;1139083;-80
2023/12/11 02:59:59;;;;;;;38.27;10.73;;;;;;;4.26;100.00;99136.30;5068625;55;1138795;-81
2023/12/11 03:05:05;;;;;;;34.27;9.40;;;;;;;4.24;100.00;99128.56;5029169;55;1141159;-76
2023/12/11 03:10:10;;;;;;;32.17;8.10;;;;;;;4.22;100.00;99124.37;5048593;55;1139011;-81
2023/12/11 03:15:16;;;;;;;20.47;4.47;;;;;;;4.19;100.00;99126.75;5068835;55;1138950;-80
2023/12/11 03:20:22;;;;;;;24.95;9.00;;;;;;;4.17;100.00;99124.71;5048959;55;1138927;-80
2023/12/11 03:25:28;;;;;;;18.63;6.47;;;;;;;4.14;100.00;99126.71;5049109;56;1136665;-81
2023/12/11 03:30:33;;;;;;;17.30;6.73;;;;;;;4.13;100.00;99130.27;5068789;56;1138875;-81
2023/12/11 03:35:39;;;;;;;21.00;6.90;;;;;;;4.10;100.00;99127.91;5048812;56;1138644;-82
2023/12/11 03:40:45;;;;;;;15.50;5.50;;;;;;;4.08;100.00;99107.55;5048984;56;1138693;-82
2023/12/11 03:45:55;;;;;;;21.77;7.07;;;;;;;4.10;100.00;99108.28;5058609;55;1138658;-77
2023/12/11 03:51:00;;;;;;;27.03;12.60;;;;;;;4.11;100.00;99094.25;5068625;55;1138956;-78
2023/12/11 03:56:07;;;;;;;19.27;6.50;;;;;;;4.13;100.00;99080.09;5026402;56;1261205;-81
2023/12/11 04:01:12;;;;;;;24.37;7.40;;;;;;;4.17;100.00;99063.69;5048905;55;1138623;-76
2023/12/11 04:06:18;;;;;;;17.07;5.03;;;;;;;4.20;100.00;99053.84;5067919;55;1138826;-78
2023/12/11 04:11:24;;;;;;;13.73;4.97;;;;;;;4.22;100.00;99036.25;5048524;55;1138769;-78
2023/12/11 04:16:30;;;;;;;15.80;6.13;;;;;;;4.25;100.00;99024.72;5048255;56;1138480;-77
2023/12/11 04:21:35;;;;;;;16.53;5.40;;;;;;;4.26;100.00;99026.39;5068149;56;1138695;-78
2023/12/11 04:26:41;;;;;;;12.40;3.30;;;;;;;4.28;100.00;99018.42;5042798;56;1138691;-78
2023/12/11 04:31:47;;;;;;;12.37;3.80;;;;;;;4.30;100.00;99014.72;5034974;56;1138872;-76
2023/12/11 04:36:53;;;;;;;11.23;4.07;;;;;;;4.33;100.00;99005.80;5035159;56;1138900;-80
2023/12/11 04:41:59;;;;;;;16.10;4.60;;;;;;;4.29;100.00;98985.56;5055381;56;1138690;-79
2023/12/11 04:47:06;;;;;;;13.00;4.75;;;;;;;4.25;100.00;98988.08;5023817;57;1138890;-80
2023/12/11 04:52:12;;;;;;;11.30;5.50;;;;;;;4.24;100.00;98972.86;5034973;55;1138609;-77
2023/12/11 04:57:17;;;;;;;17.20;5.83;;;;;;;4.23;100.00;98955.97;5009537;55;1138612;-78
2023/12/11 05:02:23;;;;;;;13.27;5.63;;;;;;;4.25;100.00;98956.68;4954758;57;1138821;-78
2023/12/11 05:07:29;;;;;;;13.28;4.42;;;;;;;4.25;100.00;98952.76;4954177;57;1138847;-77
2023/12/11 05:12:35;;;;;;;9.00;3.80;;;;;;;4.26;100.00;98936.58;5037970;56;1138939;-77
2023/12/11 05:17:40;;;;;;;10.30;4.03;;;;;;;4.26;100.00;98933.97;5035432;56;1136696;-77
2023/12/11 05:22:46;;;;;;;9.77;3.97;;;;;;;4.23;100.00;98918.02;5028478;56;1138848;-79
2023/12/11 05:27:52;;;;;;;7.87;3.80;;;;;;;4.24;100.00;98920.52;5040552;56;1137010;-79
2023/12/11 05:32:59;;;;;;;10.17;5.07;;;;;;;4.26;100.00;98914.34;5028071;56;1136726;-79
2023/12/11 05:38:05;;;;;;;8.67;4.33;;;;;;;4.27;100.00;98911.61;5048690;56;1138820;-77
2023/12/11 05:43:10;;;;;;;18.77;5.43;;;;;;;4.27;100.00;98910.77;5031400;57;1136709;-76
2023/12/11 05:48:17;;;;;;;71.80;26.48;;;;;;;4.29;100.00;98900.99;4986657;57;1138796;-78
2023/12/11 05:53:23;;;;;;;21.68;10.23;;;;;;;4.29;100.00;98886.60;5000694;56;1141143;-77
2023/12/11 05:58:29;;;;;;;15.10;6.10;;;;;;;4.30;100.00;98878.63;4967615;57;1140853;-77
2023/12/11 06:03:35;;;;;;;9.37;5.57;;;;;;;4.30;100.00;98869.95;5044356;56;1138989;-80
2023/12/11 06:08:44;;;;;;;6.67;3.60;;;;;;;4.30;100.00;98864.23;5039493;56;1137008;-77
2023/12/11 06:13:50;;;;;;;8.28;3.22;;;;;;;4.33;100.00;98865.31;5012564;55;1136882;-77
2023/12/11 06:18:56;;;;;;;9.83;3.50;;;;;;;4.30;100.00;98848.54;5043084;56;1136418;-80
2023/12/11 06:24:01;;;;;;;7.77;4.20;;;;;;;4.29;100.00;98846.88;5029505;56;1136878;-79
2023/12/11 06:29:08;;;;;;;13.03;6.78;;;;;;;4.29;100.00;98842.95;5007435;57;1134824;-79
2023/12/11 06:34:15;;;;;;;16.10;9.20;;;;;;;4.28;100.00;98837.36;4983787;56;1136757;-77
2023/12/11 06:39:20;;;;;;;8.22;3.40;;;;;;;4.29;100.00;98842.11;5017323;56;1136675;-80
2023/12/11 06:44:26;;;;;;;281.60;117.20;;;;;;;4.29;100.00;98836.88;5004783;57;1134715;-77
2023/12/11 06:49:32;;;;;;;9.03;5.43;;;;;;;4.30;100.00;98817.14;4992319;56;1143098;-77
2023/12/11 06:54:37;;;;;;;10.10;4.57;;;;;;;4.33;100.00;98832.60;5040768;56;1134319;-82
2023/12/11 06:59:43;;;;;;;5.67;4.20;;;;;;;4.35;100.00;98820.70;4988807;57;1136343;-76
2023/12/11 07:04:49;;;;;;;5.97;3.60;;;;;;;4.39;100.00;98819.05;5035866;56;1136584;-77
2023/12/11 07:09:54;;;;;;;5.93;3.50;;;;;;;4.42;100.00;98826.66;5026836;56;1134862;-77
2023/12/11 07:15:00;;;;;;;16.93;4.00;;;;;;;4.49;100.00;98825.67;4962774;57;1134853;-78
2023/12/11 07:20:07;;;;;;;8.97;4.10;;;;;;;4.57;100.00;98810.20;4947561;57;1136717;-81
2023/12/11 07:25:13;;;;;;;7.27;4.73;;;;;;;4.67;100.00;98825.52;5036003;56;1134781;-79
2023/12/11 07:30:18;;;;;;;14.80;8.15;;;;;;;4.73;100.00;98814.56;5036404;57;1134806;-81
2023/12/11 07:35:29;;;;;;;11.90;6.05;;;;;;;4.79;100.00;98821.91;4987344;56;1136824;-76
2023/12/11 07:40:31;;;;;;;10.53;5.87;;;;;;;4.84;100.00;98822.38;5000902;55;1136486;-78
2023/12/11 07:45:37;;;;;;;8.43;4.50;;;;;;;4.87;100.00;98826.55;5012247;57;1136727;-79
2023/12/11 07:50:43;;;;;;;7.30;4.77;;;;;;;4.90;100.00;98824.95;5031764;56;1134558;-76
2023/12/11 07:55:49;;;;;;;11.47;4.77;;;;;;;4.95;100.00;98828.05;5035490;57;1134591;-77
2023/12/11 08:00:54;;;;;;;11.63;5.17;;;;;;;4.98;100.00;98830.89;5035791;56;1137281;-72
2023/12/11 08:06:02;;;;;;;10.97;4.17;;;;;;;5.02;100.00;98837.08;5055910;56;1136660;-72
2023/12/11 08:11:30;;;;;;;11.94;4.56;;;;;;;5.06;100.00;98828.47;5055086;55;1136627;-72
2023/12/11 08:16:35;;;;;;;15.90;5.97;;;;;;;5.10;100.00;98829.41;5008914;56;1136622;-79
2023/12/11 08:21:42;;;;;;;13.10;5.77;;;;;;;5.16;100.00;98835.47;5012034;56;1136785;-78
2023/12/11 08:26:47;;;;;;;9.73;4.40;;;;;;;5.21;100.00;98831.97;5013548;55;1136583;-79
2023/12/11 08:31:53;;;;;;;17.53;7.57;;;;;;;5.25;100.00;98841.73;5035359;57;1134903;-81
2023/12/11 08:36:59;;;;;;;9.73;5.87;;;;;;;5.32;100.00;98839.45;5047201;55;1136835;-81
2023/12/11 08:42:05;;;;;;;15.93;9.50;;;;;;;5.41;100.00;98848.69;5068341;56;1134480;-83
2023/12/11 08:47:10;;;;;;;11.57;3.97;;;;;;;5.49;100.00;98851.52;5029406;56;1136604;-81
2023/12/11 08:52:16;;;;;;;13.58;6.92;;;;;;;5.59;100.00;98851.09;5048560;55;1136873;-80
2023/12/11 08:57:22;;;;;;;19.80;5.92;;;;;;;5.70;100.00;98862.46;5069044;55;1136842;-83
2023/12/11 09:02:27;;;;;;;22.85;7.47;;;;;;;5.81;100.00;98866.31;5049367;56;1138570;-80
2023/12/11 09:07:33;;;;;;;102.83;34.70;;;;;;;5.90;100.00;98860.34;5049001;56;1139046;-82
2023/12/11 09:12:41;;;;;;;51.10;11.45;;;;;;;5.98;100.00;98865.76;5067749;56;1143178;-82
2023/12/11 09:17:47;;;;;;;372.37;94.43;;;;;;;6.06;100.00;98872.99;5048408;56;1140797;-81
2023/12/11 09:22:53;;;;;;;31.80;4.90;;;;;;;6.15;100.00;98873.50;5048251;55;1142754;-81
2023/12/11 09:27:58;;;;;;;45.03;9.95;;;;;;;6.26;100.00;98880.80;5048394;56;1138947;-82
2023/12/11 09:33:04;;;;;;;36.03;9.30;;;;;;;6.34;100.00;98870.97;5068715;56;1139083;-80
2023/12/11 09:38:11;;;;;;;27.65;7.53;;;;;;;6.40;100.00;98866.52;5039603;57;1138697;-82
2023/12/11 09:43:19;;;;;;;108.12;32.13;;;;;;;6.45;100.00;98866.09;5004570;57;1139083;-82
2023/12/11 09:48:25;;;;;;;49.40;9.70;;;;;;;6.53;100.00;98868.42;4986431;57;1142914;-80
2023/12/11 09:53:35;;;;;;;19.63;5.23;;;;;;;6.64;100.00;98877.98;5026991;56;1138907;-82
2023/12/11 09:58:44;;;;;;;20.40;5.27;;;;;;;6.69;100.00;98866.59;5048453;56;1138888;-79
2023/12/11 10:03:49;;;;;;;19.37;5.40;;;;;;;6.72;100.00;98877.32;5068673;56;1138867;-81
2023/12/11 10:08:55;;;;;;;16.67;6.83;;;;;;;6.76;100.00;98875.58;5042958;55;1138939;-81
2023/12/11 10:14:12;;;;;;;20.10;8.17;;;;;;;6.78;100.00;98863.14;5048709;56;1139127;-81
2023/12/11 10:19:20;;;;;;;66.07;23.30;;;;;;;6.79;100.00;98865.29;5067021;56;1138743;-81
2023/12/11 10:24:25;;;;;;;23.26;5.72;;;;;;;6.79;100.00;98854.78;5048522;56;1140896;-81
2023/12/11 10:29:31;;;;;;;12.97;4.27;;;;;;;6.81;100.00;98864.19;5048227;56;1139241;-83
2023/12/11 10:34:48;;;;;;;17.97;6.63;;;;;;;6.81;100.00;98865.98;5068184;56;1138972;-80
2023/12/11 10:39:56;;;;;;;10.70;4.20;;;;;;;6.82;100.00;98867.66;5025250;56;1139006;-81
2023/12/11 10:45:02;;;;;;;30.70;8.97;;;;;;;6.79;100.00;98870.55;4949858;57;1139075;-81
2023/12/11 10:50:08;;;;;;;32.85;14.35;;;;;;;6.76;100.00;98869.02;5013500;56;1139110;-82
2023/12/11 10:55:14;;;;;;;31.67;15.53;;;;;;;6.70;100.00;98854.64;5055417;56;1140908;-83
2023/12/11 11:00:21;;;;;;;20.88;11.68;;;;;;;6.71;100.00;98858.10;5035086;56;1140976;-81
2023/12/11 11:05:29;;;;;;;20.60;9.45;;;;;;;6.69;100.00;98856.92;5028829;56;1145587;-82
2023/12/11 11:10:40;;;;;;;14.00;7.33;;;;;;;6.67;100.00;98858.02;5055188;56;1138932;-72
2023/12/11 11:15:54;;;;;;;19.27;8.23;;;;;;;6.66;100.00;98860.29;5035008;56;1139106;-72
2023/12/11 11:21:13;;;;;;;20.67;11.53;;;;;;;6.62;100.00;98877.27;5035736;56;1138614;-72
2023/12/11 11:26:36;;;;;;;17.20;7.67;;;;;;;6.58;100.00;98882.44;5035427;56;1140748;-72
2023/12/11 11:31:54;;;;;;;13.20;8.47;;;;;;;6.54;100.00;98867.45;5053748;56;1138762;-71
2023/12/11 11:36:59;;;;;;;31.20;12.70;;;;;;;6.52;100.00;98869.38;5013965;56;1138909;-72
2023/12/11 11:42:06;;;;;;;17.25;7.85;;;;;;;6.51;100.00;98869.03;4985088;57;1140944;-72
2023/12/11 11:47:19;;;;;;;15.52;7.18;;;;;;;6.52;100.00;98860.67;5064580;57;1138888;-73
2023/12/11 11:52:30;;;;;;;16.42;6.90;;;;;;;6.52;100.00;98860.19;5027278;57;1138876;-72
2023/12/11 11:57:36;;;;;;;21.23;6.90;;;;;;;6.56;100.00;98860.28;5026761;57;1138712;-72
2023/12/11 12:02:41;;;;;;;17.20;5.45;;;;;;;6.59;100.00;98857.84;5046370;57;1138729;-68
2023/12/11 12:07:50;;;;;;;16.27;5.57;;;;;;;6.60;100.00;98849.83;5032363;56;1139074;-73
2023/12/11 12:13:00;;;;;;;16.40;4.70;;;;;;;6.64;100.00;98854.34;5046979;56;1138513;-70
2023/12/11 12:18:09;;;;;;;15.83;5.00;;;;;;;6.65;100.00;98850.27;5009094;57;1138910;-71
2023/12/11 12:23:15;;;;;;;14.40;4.93;;;;;;;6.70;100.00;98848.55;4988538;57;1144411;-70
2023/12/11 12:28:20;;;;;;;14.30;5.20;;;;;;;6.73;100.00;98844.80;5021396;57;1138823;-72
2023/12/11 12:33:30;;;;;;;14.63;5.33;;;;;;;6.76;100.00;98842.74;5021829;56;1138826;-71
2023/12/11 12:38:35;;;;;;;19.63;6.10;;;;;;;6.82;100.00;98844.00;4968429;57;1138683;-73
2023/12/11 12:43:41;;;;;;;24.13;7.20;;;;;;;6.84;100.00;98846.02;5027154;56;1138787;-72
2023/12/11 12:48:47;;;;;;;19.97;5.87;;;;;;;6.86;100.00;98844.09;4981043;56;1138889;-71
2023/12/11 12:53:56;;;;;;;18.17;5.83;;;;;;;6.84;100.00;98844.70;5038814;57;1138817;-72
2023/12/11 12:59:05;;;;;;;20.17;5.87;;;;;;;6.84;100.00;98847.33;4980541;57;1138882;-73
2023/12/11 13:04:13;;;;;;;18.17;7.43;;;;;;;6.85;100.00;98843.73;4928816;57;1138604;-70
2023/12/11 13:09:32;;;;;;;20.93;8.20;;;;;;;6.85;100.00;98842.42;5026997;56;1139063;-71
2023/12/11 13:14:38;;;;;;;20.60;6.13;;;;;;;6.87;100.00;98841.33;5046644;56;1138838;-71
2023/12/11 13:19:43;;;;;;;59.77;18.77;;;;;;;6.90;100.00;98844.97;5026964;56;1138606;-70
2023/12/11 13:24:50;;;;;;;20.70;8.07;;;;;;;6.92;100.00;98843.04;5025520;56;1140633;-72
2023/12/11 13:29:55;;;;;;;40.83;13.43;;;;;;;6.97;100.00;98850.52;5026697;57;1138921;-73
2023/12/11 13:35:01;;;;;;;59.30;25.87;;;;;;;6.97;100.00;98850.05;5045759;56;1140992;-70
2023/12/11 13:40:09;;;;;;;22.10;9.47;;;;;;;6.99;100.00;98848.11;5026170;56;1140512;-69
2023/12/11 13:45:16;;;;;;;22.37;6.00;;;;;;;7.02;100.00;98847.84;4916044;57;1138902;-72
2023/12/11 13:50:21;;;;;;;24.67;9.40;;;;;;;7.04;100.00;98848.98;4965944;57;1138784;-72
2023/12/11 13:55:27;;;;;;;87.75;38.40;;;;;;;7.03;100.00;98849.47;4946529;56;1138629;-71
2023/12/11 14:00:32;;;;;;;35.88;15.30;;;;;;;7.03;100.00;98853.42;4945150;57;1140789;-80
2023/12/11 14:05:38;;;;;;;23.07;8.47;;;;;;;7.02;100.00;98864.09;4965248;57;1140884;-79
2023/12/11 14:10:45;;;;;;;16.60;6.57;;;;;;;6.99;100.00;98855.16;4945364;57;1138817;-81
2023/12/11 14:15:52;;;;;;;18.00;7.33;;;;;;;6.94;100.00;98859.98;4904449;56;1139037;-78
2023/12/11 14:21:00;;;;;;;17.63;7.50;;;;;;;6.92;100.00;98863.23;4892030;55;1139028;-78
2023/12/11 14:26:06;;;;;;;41.07;11.63;;;;;;;6.88;100.00;98876.29;4965877;56;1138802;-78
2023/12/11 14:31:12;;;;;;;22.10;10.07;;;;;;;6.85;100.00;98868.22;5011717;57;1140874;-78
2023/12/11 14:36:17;;;;;;;19.27;9.47;;;;;;;6.81;100.00;98868.14;5028655;57;1140990;-79
2023/12/11 14:41:23;;;;;;;15.05;6.75;;;;;;;6.79;100.00;98862.66;5048847;57;1138838;-80
2023/12/11 14:46:29;;;;;;;26.63;11.67;;;;;;;6.79;100.00;98869.23;4980975;57;1138869;-81
2023/12/11 14:51:40;;;;;;;141.63;50.20;;;;;;;6.70;100.00;98870.41;4998193;56;1140815;-84
2023/12/11 14:56:42;;;;;;;22.93;8.27;;;;;;;6.70;100.00;98870.41;5066915;56;1143306;-79
2023/12/11 15:01:48;;;;;;;30.80;12.67;;;;;;;6.68;100.00;98874.95;5012541;55;1138687;-83
2023/12/11 15:06:53;;;;;;;38.23;12.97;;;;;;;6.66;100.00;98878.20;4990147;57;1140939;-82
2023/12/11 15:11:59;;;;;;;30.00;9.45;;;;;;;6.65;100.00;98875.70;4967483;55;1140910;-82
2023/12/11 15:17:05;;;;;;;22.63;9.67;;;;;;;6.63;100.00;98877.14;4987103;57;1138658;-79
2023/12/11 15:22:11;;;;;;;21.37;8.70;;;;;;;6.62;100.00;98872.02;4967460;55;1138581;-81
2023/12/11 15:27:17;;;;;;;23.18;8.88;;;;;;;6.62;100.00;98878.11;5061648;56;1138547;-82
2023/12/11 15:32:23;;;;;;;77.10;26.15;;;;;;;6.63;100.00;98884.20;5023243;56;1139012;-81
2023/12/11 15:37:28;;;;;;;60.23;27.22;;;;;;;6.66;100.00;98885.25;5016211;55;1140894;-83
2023/12/11 15:42:42;;;;;;;41.68;15.43;;;;;;;6.67;100.00;98885.12;5021065;55;1140894;-79
2023/12/11 15:47:44;;;;;;;66.40;20.32;;;;;;;6.66;100.00;98875.57;4950461;57;1140964;-83
2023/12/11 15:52:50;;;;;;;40.07;17.37;;;;;;;6.64;100.00;98882.75;4933859;57;1140987;-81
2023/12/11 15:57:55;;;;;;;22.43;7.47;;;;;;;6.65;100.00;98891.46;4892919;57;1141213;-80
2023/12/11 16:03:01;;;;;;;43.05;16.20;;;;;;;6.63;100.00;98882.40;4885037;57;1138928;-79
2023/12/11 16:08:07;;;;;;;21.95;9.45;;;;;;;6.63;100.00;98881.57;4856002;57;1141027;-81
2023/12/11 16:13:12;;;;;;;25.20;10.57;;;;;;;6.61;100.00;98887.44;4943770;57;1138808;-82
2023/12/11 16:18:18;;;;;;;23.37;8.73;;;;;;;6.59;100.00;98893.30;4944438;55;1141096;-78
2023/12/11 16:23:23;;;;;;;35.30;13.93;;;;;;;6.57;100.00;98895.26;4884532;58;1139055;-76
2023/12/11 16:28:29;;;;;;;30.70;11.43;;;;;;;6.55;100.00;98891.92;4864012;58;1140771;-75
2023/12/11 16:33:35;;;;;;;41.63;18.33;;;;;;;6.52;100.00;98888.25;4881399;56;1140792;-75
2023/12/11 16:38:41;;;;;;;47.17;21.57;;;;;;;6.50;100.00;98892.31;4963014;58;1140855;-79
2023/12/11 16:43:50;;;;;;;144.83;44.63;;;;;;;6.50;100.00;98889.69;4943464;58;1140871;-78
2023/12/11 16:48:55;;;;;;;42.80;28.03;;;;;;;6.50;100.00;98877.04;4942400;57;1143130;-84
2023/12/11 16:54:01;;;;;;;21.90;9.10;;;;;;;6.52;100.00;98889.56;4942901;57;1141011;-82
2023/12/11 16:59:06;;;;;;;47.37;21.77;;;;;;;6.52;100.00;98885.63;4962638;57;1138866;-81
2023/12/11 17:04:12;;;;;;;43.67;21.70;;;;;;;6.51;100.00;98890.04;4943416;56;1141033;-77
2023/12/11 17:09:17;;;;;;;37.93;19.80;;;;;;;6.54;100.00;98891.09;4950578;56;1173436;-81
2023/12/11 17:14:23;;;;;;;29.43;18.37;;;;;;;6.56;100.00;98891.80;4963084;56;1141213;-81
2023/12/11 17:19:28;;;;;;;22.87;12.82;;;;;;;6.58;100.00;98890.32;4944532;56;1140691;-81
2023/12/11 17:24:38;;;;;;;25.43;12.58;;;;;;;6.59;100.00;98882.79;4939053;58;1140863;-82
2023/12/11 17:29:41;;;;;;;19.40;10.93;;;;;;;6.60;100.00;98873.95;4935201;58;1140692;-79
2023/12/11 17:34:47;;;;;;;21.73;11.80;;;;;;;6.60;100.00;98877.41;4915739;58;1140910;-83
2023/12/11 17:39:53;;;;;;;26.63;11.70;;;;;;;6.62;100.00;98878.11;4922780;57;1140894;-83
2023/12/11 17:44:58;;;;;;;43.20;18.63;;;;;;;6.63;100.00;98880.25;4943565;58;1140663;-81
2023/12/11 17:50:05;;;;;;;22.87;12.63;;;;;;;6.61;100.00;98877.76;4962163;58;1140495;-82
2023/12/11 17:55:10;;;;;;;26.50;14.80;;;;;;;6.59;100.00;98870.97;4963399;58;1140999;-83
2023/12/11 18:00:16;;;;;;;28.20;15.77;;;;;;;6.57;100.00;98872.93;4966480;58;1140835;-83
2023/12/11 18:05:22;;;;;;;76.30;30.80;;;;;;;6.57;100.00;98870.30;4985979;57;1140929;-80
2023/12/11 18:10:28;;;;;;;23.32;12.45;;;;;;;6.59;100.00;98870.48;4966818;57;1140982;-76
2023/12/11 18:15:34;;;;;;;13.15;8.53;;;;;;;6.60;100.00;98868.70;4967488;57;1140765;-81
2023/12/11 18:20:39;;;;;;;22.93;10.17;;;;;;;6.62;100.00;98868.08;4986759;58;1139060;-80
2023/12/11 18:25:45;;;;;;;24.60;12.17;;;;;;;6.64;100.00;98872.72;4959036;58;1140885;-78
2023/12/11 18:30:50;;;;;;;39.27;17.97;;;;;;;6.61;100.00;98873.81;4947937;58;1140897;-83
2023/12/11 18:35:56;;;;;;;37.90;18.00;;;;;;;6.58;100.00;98862.27;4952182;57;1140829;-80
2023/12/11 18:41:02;;;;;;;26.45;13.20;;;;;;;6.57;100.00;98869.79;4986437;58;1140982;-77
2023/12/11 18:46:07;;;;;;;27.10;15.33;;;;;;;6.53;100.00;98871.53;4966381;58;1140986;-80
2023/12/11 18:51:26;;;;;;;23.32;12.93;;;;;;;6.50;100.00;98869.16;4966609;58;1141235;-80
2023/12/11 18:56:31;;;;;;;55.67;24.63;;;;;;;6.47;100.00;98870.73;4968353;58;1140899;-81
2023/12/11 19:01:38;;;;;;;45.67;19.00;;;;;;;6.44;100.00;98869.68;4943505;57;1140926;-80
2023/12/11 19:06:43;;;;;;;36.93;16.13;;;;;;;6.41;100.00;98875.22;4943456;56;1140917;-83
2023/12/11 19:11:50;;;;;;;22.10;12.87;;;;;;;6.38;100.00;98887.30;4947431;57;1141104;-82
2023/12/11 19:16:56;;;;;;;28.37;16.13;;;;;;;6.35;100.00;98891.02;4917270;58;1140964;-80
2023/12/11 19:22:01;;;;;;;28.30;14.93;;;;;;;6.30;100.00;98889.25;4893681;57;1140932;-81
2023/12/11 19:27:07;;;;;;;31.07;14.47;;;;;;;6.28;100.00;98887.23;4902590;57;1140817;-78
2023/12/11 19:32:13;;;;;;;32.63;14.50;;;;;;;6.27;100.00;98889.03;4940512;57;1140859;-80
2023/12/11 19:37:18;;;;;;;30.60;15.83;;;;;;;6.29;100.00;98891.05;4942565;57;1140869;-79
2023/12/11 19:42:24;;;;;;;25.40;13.30;;;;;;;6.31;100.00;98894.86;5042987;55;1140965;-78
2023/12/11 19:47:30;;;;;;;127.82;47.90;;;;;;;6.33;100.00;98899.50;5024407;57;1141068;-77
2023/12/11 19:52:35;;;;;;;157.78;80.55;;;;;;;6.34;100.00;98895.44;5023962;57;1142838;-83
2023/12/11 19:57:42;;;;;;;80.27;39.47;;;;;;;6.37;100.00;98905.33;5017409;56;1143038;-80
2023/12/11 20:02:47;;;;;;;74.00;34.53;;;;;;;6.37;100.00;98903.53;5023360;56;1140587;-81
2023/12/11 20:07:53;;;;;;;117.50;68.10;;;;;;;6.38;100.00;98909.62;5023641;57;1140661;-79
2023/12/11 20:12:58;;;;;;;42.67;25.40;;;;;;;6.37;100.00;98915.34;5011941;56;1142919;-80
2023/12/11 20:18:04;;;;;;;32.93;16.97;;;;;;;6.33;100.00;98920.50;4962515;57;1140918;-80
2023/12/11 20:23:10;;;;;;;34.13;17.90;;;;;;;6.30;100.00;98924.22;4943011;56;1140978;-79
2023/12/11 20:28:15;;;;;;;27.43;14.40;;;;;;;6.30;100.00;98932.58;5018549;56;1141016;-80
2023/12/11 20:33:21;;;;;;;29.03;14.63;;;;;;;6.30;100.00;98935.20;5048458;56;1140626;-81
2023/12/11 20:38:26;;;;;;;27.07;16.07;;;;;;;6.32;100.00;98931.48;5077960;56;1144882;-79
2023/12/11 20:43:32;;;;;;;30.45;16.60;;;;;;;6.33;100.00;98938.41;5078863;55;1140712;-81
2023/12/11 20:48:37;;;;;;;28.75;15.83;;;;;;;6.32;100.00;98950.34;5099182;55;1140849;-81
2023/12/11 20:53:43;;;;;;;25.83;15.53;;;;;;;6.31;100.00;98947.37;5027801;55;1140920;-82
2023/12/11 20:58:49;;;;;;;45.40;22.07;;;;;;;6.31;100.00;98960.50;4952447;57;1140826;-82
2023/12/11 21:03:57;;;;;;;41.83;23.43;;;;;;;6.32;100.00;98974.81;5017654;57;1140892;-81
2023/12/11 21:09:07;;;;;;;54.00;28.47;;;;;;;6.31;100.00;98971.00;5062701;57;1140761;-82
2023/12/11 21:14:10;;;;;;;42.33;20.57;;;;;;;6.32;100.00;98974.81;5048680;55;1140785;-80
2023/12/11 21:19:16;;;;;;;67.97;31.43;;;;;;;6.31;100.00;98981.02;5044374;55;1140984;-81
2023/12/11 21:24:24;;;;;;;63.06;23.92;;;;;;;6.31;100.00;98984.12;5087197;56;1140945;-81
2023/12/11 21:29:30;;;;;;;46.33;20.00;;;;;;;6.32;100.00;98993.67;5041259;57;1140937;-81
2023/12/11 21:34:36;;;;;;;43.43;18.63;;;;;;;6.30;100.00;98997.73;5005770;56;1141027;-84
2023/12/11 21:39:41;;;;;;;42.93;17.45;;;;;;;6.30;100.00;99004.77;4913088;57;1140759;-84
2023/12/11 21:44:47;;;;;;;30.50;15.50;;;;;;;6.29;100.00;99009.67;4823532;58;1140936;-80
2023/12/11 21:49:53;;;;;;;33.83;14.57;;;;;;;6.28;100.00;99017.20;4826074;58;1141051;-81
2023/12/11 21:54:58;;;;;;;29.83;14.03;;;;;;;6.26;100.00;99024.39;4878683;58;1140799;-83
2023/12/11 22:00:05;;;;;;;47.37;17.63;;;;;;;6.26;100.00;99030.45;4973003;56;1140749;-83
2023/12/11 22:05:12;;;;;;;122.07;37.50;;;;;;;6.28;100.00;99033.78;4827074;59;1140864;-81
2023/12/11 22:10:18;;;;;;;46.83;21.97;;;;;;;6.33;100.00;99038.17;4824978;58;1143062;-83
2023/12/11 22:15:24;;;;;;;54.18;21.23;;;;;;;6.37;100.00;99057.14;4881896;58;1140886;-81
2023/12/11 22:20:30;;;;;;;48.80;21.62;;;;;;;6.27;100.00;99037.84;4948027;57;1140985;-80
2023/12/11 22:25:36;;;;;;;53.70;19.15;;;;;;;6.38;100.00;99070.63;4941280;57;1141020;-82
2023/12/11 22:30:41;;;;;;;50.80;19.67;;;;;;;6.39;100.00;99071.46;4963439;56;1140802;-82
2023/12/11 22:35:47;;;;;;;44.27;16.40;;;;;;;6.35;100.00;99079.59;4943005;57;1140906;-82
2023/12/11 22:40:52;;;;;;;51.67;22.17;;;;;;;6.33;100.00;99086.75;4942786;57;1140813;-83
2023/12/11 22:45:58;;;;;;;45.47;18.03;;;;;;;6.32;100.00;99075.89;4943728;58;1141328;-81
2023/12/11 22:51:04;;;;;;;81.37;25.07;;;;;;;6.33;100.00;99088.06;4962309;58;1141022;-81
2023/12/11 22:56:10;;;;;;;40.23;16.80;;;;;;;6.33;100.00;99093.31;4942697;57;1140883;-83
2023/12/11 23:01:16;;;;;;;37.90;14.43;;;;;;;6.33;100.00;99095.11;4944183;58;1140740;-83
2023/12/11 23:06:21;;;;;;;43.23;18.53;;;;;;;6.30;100.00;99103.23;4986980;56;1140770;-80